HTAT2: Little Wichita River abv Henrietta 3W

Data processed at Wed May 22 2019 23:50


All information presented herein is the property of the government of the United States of America and may be revised or deleted at any time without prior notice.
Dissemination of this information without the expressed written consent of the Public Affairs Office, Tulsa District U.S. Army Corps of Engineers is strictly prohibited.
These data are gathered electronically and, as presented, have not undergone any form of quality control. These data are not guaranteed to be valid or correct.
Go to home page.
Go to station list.
Go to home page.

Upstream stations:

Downstream station:
Previous Day
Next Day
Current Day
    
SHEF ID:       HTAT2     Little Wichita Rv abv Henrietta,
STATION TYPE:  

               PRECIP     STAGE  STAGE(2)  RIV-FLOW  BAT-LOAD
                   in        ft        ft       cfs      volt
              Ccp-Rev   Ccp-Rev   Ccp-Rev   Ccp-Rev   Ccp-Rev
(US/Central)
05/22 00:00      0.00     15.83      ----       832     12.65
05/22 01:00      0.00     15.88      ----       840     12.65
05/22 02:00      0.00     15.93      ----       848     12.65
05/22 03:00      0.00     15.99      ----       858     12.65
05/22 04:00      0.00     16.05      ----       868     12.57
05/22 05:00      0.00     16.13      ----       881     12.57
05/22 06:00      0.00     16.17      ----       887     12.57
05/22 07:00      0.00     16.24      ----       899     12.57
05/22 08:00      0.00     16.28      ----       905     12.57
05/22 09:00      0.00     16.36      ----       919     12.65
05/22 10:00      0.00     16.42      ----       929     12.97
05/22 11:00      0.00     16.48      ----       939     13.21
05/22 12:00      0.00     16.54      ----       949     13.29
05/22 13:00      0.00     16.59      ----       957     13.21
05/22 14:00      0.00     16.65      ----       967     13.37
05/22 15:00      0.00     16.70      ----       976     13.29
05/22 16:00      0.00     16.77      ----       988     13.13
05/22 17:00      0.00     16.83      ----       998     13.05
05/22 18:00      0.00     16.89      ----      1008     13.05
05/22 19:00      0.00     16.95      ----      1018     12.81
05/22 20:00      0.00     16.99      ----      1025     12.81
05/22 21:00      0.00     17.07      ----      1039     12.73
05/22 22:00      0.00     17.15      ----      1053     12.73
05/22 23:00      0.00     17.21      ----      1064     12.73